Time;durP1;ratioP1;P1;durP2;ratioP2;P2;SDS_P1;SDS_P2;PMS_P1;PMS_P2;Temp;Humidity;BMP_temperature;BMP_pressure;BME280_temperature;BME280_humidity;BME280_pressure;Samples;Min_cycle;Max_cycle;Signal;HPM_P1;HPM_P2
2023/09/26 07:54:17;;;;;;;;;;;;;;;7.31;100.00;100181.44;5686955;23;19940;-80
2023/09/26 07:56:43;;;;;;;;;;;;;;;7.36;100.00;100184.81;5031595;28;19944;-80
2023/09/26 07:59:08;;;;;;;;;;;;;;;7.38;100.00;100180.38;5033256;28;19921;-81
2023/09/26 08:01:33;;;;;;;;;;;;;;;7.45;100.00;100187.25;5028863;28;19925;-81
2023/09/26 08:03:59;;;;;;;;;;;;;;;7.49;100.00;100187.19;5030382;28;20343;-82
2023/09/26 08:06:24;;;;;;;;;;;;;;;7.49;100.00;100182.75;5031208;28;19928;-81
2023/09/26 08:08:49;;;;;;;;;;;;;;;7.55;100.00;100179.13;5032952;28;19924;-80
2023/09/26 08:11:14;;;;;;;;;;;;;;;7.59;100.00;100181.63;5031080;28;20008;-80
2023/09/26 08:13:39;;;;;;;;;;;;;;;7.58;100.00;100179.06;5032646;28;19964;-82
2023/09/26 08:16:05;;;;;;;;;;;;;;;7.63;100.00;100183.28;5031940;28;19928;-80
2023/09/26 08:18:30;;;;;;;;;;;;;;;7.65;100.00;100180.63;5030951;28;20380;-81
2023/09/26 08:20:57;;;;;;;;;;;;;;;7.66;100.00;100166.53;5032360;28;19953;-81
2023/09/26 08:23:23;;;;;;;;;;;;;;;7.69;100.00;100169.09;5032383;28;19917;-81
2023/09/26 08:25:49;;;;;;;;;;;;;;;7.72;100.00;100160.22;5033857;28;19917;-81
2023/09/26 08:28:14;;;;;;;;;;;;;;;7.74;100.00;100159.31;5032326;28;19970;-81
2023/09/26 08:30:40;;;;;;;;;;;;;;;7.75;100.00;100160.16;5029130;28;19929;-80
2023/09/26 08:33:05;;;;;;;;;;;;;;;7.80;100.00;100163.53;5029628;28;20372;-81
2023/09/26 08:35:33;;;;;;;;;;;;;;;7.79;100.00;100165.31;5031630;28;19932;-81
2023/09/26 08:37:58;;;;;;;;;;;;;;;7.86;100.00;100165.16;5031512;28;19940;-81
2023/09/26 08:40:25;;;;;;;;;;;;;;;7.86;100.00;100159.88;5032152;28;20372;-81
2023/09/26 08:42:52;;;;;;;;;;;;;;;7.86;100.00;100162.53;5033610;28;20820;-82
2023/09/26 08:45:18;;;;;;;;;;;;;;;7.89;100.00;100158.03;5046499;28;20007;-81
2023/09/26 08:47:44;;;;;;;;;;;;;;;7.92;100.00;100157.09;5030947;28;19932;-82
2023/09/26 08:50:09;;;;;;;;;;;;;;;7.92;100.00;100157.94;5031535;28;19917;-81
2023/09/26 08:52:34;;;;;;;;;;;;;;;7.95;100.00;100163.16;5030896;28;20330;-81
2023/09/26 08:55:00;;;;;;;;;;;;;;;7.97;100.00;100149.91;5029830;28;19926;-81
2023/09/26 08:57:25;;;;;;;;;;;;;;;7.99;100.00;100142.81;5033204;28;19917;-82
2023/09/26 08:59:51;;;;;;;;;;;;;;;8.03;100.00;100139.19;5032297;28;19921;-82
2023/09/26 09:02:16;;;;;;;;;;;;;;;8.03;100.00;100143.63;5031191;28;20011;-81
2023/09/26 09:04:42;;;;;;;;;;;;;;;8.01;100.00;100135.75;5032013;28;19925;-83
2023/09/26 09:07:08;;;;;;;;;;;;;;;8.08;100.00;100136.44;5030995;28;20316;-82
2023/09/26 09:09:33;;;;;;;;;;;;;;;8.10;100.00;100138.13;5031510;28;19937;-83
2023/09/26 09:11:59;;;;;;;;;;;;;;;8.09;100.00;100132.88;5031756;28;19930;-82
2023/09/26 09:14:42;;;;;;;;;;;;;;;8.13;100.00;100138.03;5031440;28;20376;-93
2023/09/26 09:17:07;;;;;;;;;;;;;;;8.15;100.00;100144.16;5031411;28;19921;-84
2023/09/26 09:19:48;;;;;;;;;;;;;;;8.17;100.00;100136.19;5032324;28;19936;-93
2023/09/26 09:22:20;;;;;;;;;;;;;;;8.22;100.00;100138.69;5031557;28;20384;-83
2023/09/26 09:24:56;;;;;;;;;;;;;;;8.26;100.00;100145.63;5030873;28;19921;-90
2023/09/26 09:27:31;;;;;;;;;;;;;;;8.25;100.00;100143.88;5047908;28;19937;-83
2023/09/26 09:30:25;;;;;;;;;;;;;;;8.30;100.00;100147.28;5032151;28;20382;-83
2023/09/26 09:32:50;;;;;;;;;;;;;;;8.32;100.00;100150.75;5032169;28;19924;-83
2023/09/26 09:35:17;;;;;;;;;;;;;;;8.39;100.00;100143.50;5031108;28;19917;-82
2023/09/26 09:37:43;;;;;;;;;;;;;;;8.37;100.00;100146.19;5046243;28;20257;-81
2023/09/26 09:40:10;;;;;;;;;;;;;;;11.60;100.00;100138.66;5027719;28;19921;-82
2023/09/26 09:42:35;;;;;;;;;;;;;;;8.31;100.00;100154.28;5030458;28;19921;-82
2023/09/26 09:45:01;;;;;;;;;;;;;;;7.26;100.00;100141.16;5032523;28;19947;-81
2023/09/26 09:47:29;;;;;;;;;;;;;;;13.48;100.00;100143.50;5029481;28;19925;-83
2023/09/26 09:49:57;;;;;;;;;;;;;;;8.70;100.00;100123.25;5029238;28;20015;-83
2023/09/26 09:52:23;;;;;;;;;;;;;;;7.24;100.00;100132.38;5029793;28;20032;-85
2023/09/26 09:54:51;;;;;;;;;;;;;;;6.87;100.00;100138.50;5029606;28;20431;-81
2023/09/26 09:57:17;;;;;;;;;;;;;;;6.59;100.00;100130.31;5031230;28;19942;-81
2023/09/26 09:59:47;;;;;;;;;;;;;;;6.46;100.00;100124.44;5030098;28;20725;-83
2023/09/26 10:02:15;;;;;;;;;;;;;;;6.29;100.00;100124.81;5030734;28;19924;-82
2023/09/26 10:04:41;;;;;;;;;;;;;;;6.21;100.00;100119.69;5031376;28;19925;-81
2023/09/26 10:07:09;;;;;;;;;;;;;;;6.14;100.00;100121.56;5032005;28;20453;-81
2023/09/26 10:09:35;;;;;;;;;;;;;;;6.03;100.00;100127.91;5030506;28;19924;-80
2023/09/26 10:12:01;;;;;;;;;;;;;;;6.01;100.00;100122.69;5031966;28;19921;-82
2023/09/26 10:14:29;;;;;;;;;;;;;;;6.05;100.00;100121.75;5031099;28;20300;-82
2023/09/26 10:16:55;;;;;;;;;;;;;;;5.92;100.00;100123.72;5032034;28;20394;-81
2023/09/26 10:19:28;;;;;;;;;;;;;;;5.88;100.00;100124.66;5029271;28;19925;-81
2023/09/26 10:22:12;;;;;;;;;;;;;;;5.81;100.00;100116.00;5042199;28;19976;-81
2023/09/26 10:24:44;;;;;;;;;;;;;;;5.83;100.00;100115.97;5026491;28;20066;-81
2023/09/26 10:27:09;;;;;;;;;;;;;;;5.74;100.00;100129.28;5029373;28;19925;-82
2023/09/26 10:29:38;;;;;;;;;;;;;;;5.77;100.00;100118.72;5028975;28;19921;-84
2023/09/26 10:32:06;;;;;;;;;;;;;;;5.76;100.00;100116.97;5031018;28;19928;-83
2023/09/26 10:34:35;;;;;;;;;;;;;;;5.74;100.00;100105.63;5033911;28;20003;-81
2023/09/26 10:37:03;;;;;;;;;;;;;;;5.69;100.00;100112.72;5034315;28;19928;-81
2023/09/26 10:39:35;;;;;;;;;;;;;;;5.73;100.00;100102.13;5046043;28;20024;-82
2023/09/26 10:42:10;;;;;;;;;;;;;;;5.70;100.00;100106.59;5032396;28;19932;-81
2023/09/26 10:44:36;;;;;;;;;;;;;;;5.73;100.00;100103.91;5032790;28;19921;-81
2023/09/26 10:47:04;;;;;;;;;;;;;;;5.63;100.00;100098.81;5049215;28;19938;-81
2023/09/26 10:49:30;;;;;;;;;;;;;;;5.61;100.00;100103.19;5032771;28;20408;-81
2023/09/26 10:51:55;;;;;;;;;;;;;;;5.60;100.00;100103.22;5032912;28;20376;-81
2023/09/26 10:54:21;;;;;;;;;;;;;;;5.53;100.00;100105.09;5030827;28;19921;-82
2023/09/26 10:56:49;;;;;;;;;;;;;;;5.61;100.00;100099.72;5032201;28;19932;-82
2023/09/26 10:59:18;;;;;;;;;;;;;;;5.54;100.00;100098.09;5034676;28;19917;-81
2023/09/26 11:01:45;;;;;;;;;;;;;;;5.55;100.00;100102.44;5033365;28;19927;-81
2023/09/26 11:04:10;;;;;;;;;;;;;;;5.45;100.00;100104.38;5032468;28;19921;-81
2023/09/26 11:06:37;;;;;;;;;;;;;;;5.51;100.00;100098.16;5031985;28;19921;-81
2023/09/26 11:09:03;;;;;;;;;;;;;;;5.58;100.00;100097.13;5034031;28;19925;-81
2023/09/26 11:11:28;;;;;;;;;;;;;;;5.59;100.00;100094.47;5034285;28;19921;-81
2023/09/26 11:13:53;;;;;;;;;;;;;;;5.55;100.00;100092.81;5034118;28;19928;-81
2023/09/26 11:16:19;;;;;;;;;;;;;;;5.44;100.00;100089.47;5031785;28;20016;-81
2023/09/26 11:18:44;;;;;;;;;;;;;;;5.41;100.00;100087.78;5035115;28;20369;-81
2023/09/26 11:21:09;;;;;;;;;;;;;;;5.44;100.00;100092.09;5033421;28;20383;-81
2023/09/26 11:23:40;;;;;;;;;;;;;;;5.41;100.00;100085.16;5033213;28;19916;-81
2023/09/26 11:26:06;;;;;;;;;;;;;;;5.40;100.00;100082.56;5032554;28;19932;-81
2023/09/26 11:28:32;;;;;;;;;;;;;;;5.49;100.00;100084.16;5033139;28;19921;-80
2023/09/26 11:30:57;;;;;;;;;;;;;;;5.39;100.00;100079.06;5034017;28;20011;-81
2023/09/26 11:33:23;;;;;;;;;;;;;;;5.45;100.00;100083.34;5031414;28;20013;-81
2023/09/26 11:35:49;;;;;;;;;;;;;;;5.44;100.00;100081.59;5031092;28;19921;-81
2023/09/26 11:38:14;;;;;;;;;;;;;;;5.36;100.00;100078.22;5028542;28;19994;-81
2023/09/26 11:40:40;;;;;;;;;;;;;;;5.44;100.00;100071.06;5030412;28;20438;-83
2023/09/26 11:43:06;;;;;;;;;;;;;;;5.39;100.00;100071.19;5031881;28;19921;-83
2023/09/26 11:45:32;;;;;;;;;;;;;;;5.36;100.00;100070.34;5032400;28;19921;-83
2023/09/26 11:47:57;;;;;;;;;;;;;;;5.39;100.00;100067.66;5033162;28;19956;-83
2023/09/26 11:50:23;;;;;;;;;;;;;;;5.42;100.00;100062.38;5031147;28;20474;-83
2023/09/26 11:52:48;;;;;;;;;;;;;;;5.41;100.00;100071.16;5032651;28;20345;-83
2023/09/26 11:55:16;;;;;;;;;;;;;;;5.41;100.00;100072.03;5029064;28;19921;-84
2023/09/26 11:57:41;;;;;;;;;;;;;;;5.37;100.00;100070.31;5046967;28;19921;-83
2023/09/26 12:00:15;;;;;;;;;;;;;;;5.37;100.00;100070.31;5030535;28;19925;-83
2023/09/26 12:02:42;;;;;;;;;;;;;;;5.44;100.00;100063.19;5033905;28;20275;-81
2023/09/26 12:05:08;;;;;;;;;;;;;;;5.44;100.00;100057.94;5033085;28;20433;-82
2023/09/26 12:07:33;;;;;;;;;;;;;;;5.39;100.00;100065.03;5032457;28;19925;-81
2023/09/26 12:09:59;;;;;;;;;;;;;;;5.38;100.00;100060.69;5031647;28;19928;-81
2023/09/26 12:12:24;;;;;;;;;;;;;;;5.36;100.00;100057.22;5048624;28;19956;-81
2023/09/26 12:14:52;;;;;;;;;;;;;;;5.45;100.00;100054.44;5031479;28;19921;-81
2023/09/26 12:17:17;;;;;;;;;;;;;;;5.48;100.00;100059.63;5029116;28;20015;-80
2023/09/26 12:19:42;;;;;;;;;;;;;;;5.34;100.00;100053.75;5030190;28;20023;-81
2023/09/26 12:22:07;;;;;;;;;;;;;;;5.39;100.00;100051.91;5031871;28;19952;-81
2023/09/26 12:24:32;;;;;;;;;;;;;;;5.28;100.00;100055.59;5029418;28;19971;-81
2023/09/26 12:26:59;;;;;;;;;;;;;;;5.32;100.00;100043.25;5032725;28;19924;-81
2023/09/26 12:29:24;;;;;;;;;;;;;;;5.40;100.00;100049.25;5033343;28;20023;-82
2023/09/26 12:31:49;;;;;;;;;;;;;;;5.32;100.00;100040.63;5033742;28;20000;-86
2023/09/26 12:34:15;;;;;;;;;;;;;;;5.41;100.00;100050.13;5033698;28;19952;-85
2023/09/26 12:36:40;;;;;;;;;;;;;;;5.33;100.00;100046.75;5033529;28;19921;-82
2023/09/26 12:39:07;;;;;;;;;;;;;;;5.38;100.00;100039.69;5031648;28;20319;-82
2023/09/26 12:41:32;;;;;;;;;;;;;;;5.35;100.00;100040.59;5033257;28;19957;-82
2023/09/26 12:43:58;;;;;;;;;;;;;;;5.39;100.00;100041.38;5033396;28;20818;-89
2023/09/26 12:46:23;;;;;;;;;;;;;;;5.43;100.00;100038.69;5033520;28;19917;-82
2023/09/26 12:48:48;;;;;;;;;;;;;;;5.30;100.00;100031.91;5033388;28;19925;-87
2023/09/26 12:51:14;;;;;;;;;;;;;;;5.35;100.00;100035.34;5033410;28;20288;-82
2023/09/26 12:53:39;;;;;;;;;;;;;;;5.33;100.00;100028.34;5031634;28;19921;-82
2023/09/26 12:56:04;;;;;;;;;;;;;;;5.62;100.00;100047.09;5033056;28;19921;-81
2023/09/26 12:58:29;;;;;;;;;;;;;;;6.25;100.00;100044.16;5033153;28;20423;-82
2023/09/26 13:00:55;;;;;;;;;;;;;;;6.57;100.00;100038.19;5033130;28;19917;-82
2023/09/26 13:03:21;;;;;;;;;;;;;;;6.83;100.00;100037.63;5033221;28;20343;-82
2023/09/26 13:05:46;;;;;;;;;;;;;;;6.96;100.00;100032.91;5032811;28;19917;-82
2023/09/26 13:08:11;;;;;;;;;;;;;;;7.09;100.00;100036.97;5031909;28;20395;-82
2023/09/26 13:10:36;;;;;;;;;;;;;;;7.18;100.00;100030.63;5033081;28;20284;-81
2023/09/26 13:13:02;;;;;;;;;;;;;;;7.28;100.00;100037.38;5032700;28;20016;-81
2023/09/26 13:15:31;;;;;;;;;;;;;;;7.38;100.00;100031.88;5033013;28;20479;-81
2023/09/26 13:17:56;;;;;;;;;;;;;;;7.39;100.00;100031.84;5032808;28;20261;-81
2023/09/26 13:20:21;;;;;;;;;;;;;;;7.49;100.00;100031.63;5032844;28;19921;-81
2023/09/26 13:22:47;;;;;;;;;;;;;;;7.56;100.00;100033.16;5031443;28;19917;-86
2023/09/26 13:25:13;;;;;;;;;;;;;;;7.59;100.00;100033.94;5031445;28;19921;-81
2023/09/26 13:27:38;;;;;;;;;;;;;;;7.64;100.00;100032.06;5032529;28;20016;-81
2023/09/26 13:30:04;;;;;;;;;;;;;;;7.64;100.00;100036.47;5032520;28;19924;-81
2023/09/26 13:32:30;;;;;;;;;;;;;;;7.71;100.00;100031.91;5031328;28;19932;-81
2023/09/26 13:34:55;;;;;;;;;;;;;;;7.74;100.00;100031.81;5047806;28;20020;-81
2023/09/26 13:37:23;;;;;;;;;;;;;;;7.77;100.00;100032.59;5032528;28;20375;-83
2023/09/26 13:39:48;;;;;;;;;;;;;;;7.86;100.00;100025.34;5031387;28;20399;-81
2023/09/26 13:42:13;;;;;;;;;;;;;;;7.88;100.00;100024.41;5032639;28;19921;-82
2023/09/26 13:44:39;;;;;;;;;;;;;;;7.92;100.00;100022.53;5032115;28;19917;-81
2023/09/26 13:47:04;;;;;;;;;;;;;;;7.95;100.00;100025.09;5032383;28;19921;-89
2023/09/26 13:49:29;;;;;;;;;;;;;;;7.99;100.00;100021.44;5047272;28;19975;-82
2023/09/26 13:51:57;;;;;;;;;;;;;;;7.99;100.00;100018.78;5032348;28;19918;-82
2023/09/26 13:54:23;;;;;;;;;;;;;;;8.01;100.00;100019.63;5025589;28;19928;-81
2023/09/26 13:56:48;;;;;;;;;;;;;;;8.05;100.00;100021.25;5029539;28;19921;-81
2023/09/26 13:59:13;;;;;;;;;;;;;;;8.07;100.00;100016.78;5045666;28;20397;-81
2023/09/26 14:01:39;;;;;;;;;;;;;;;8.09;100.00;100017.63;5045545;28;19928;-82
2023/09/26 14:04:05;;;;;;;;;;;;;;;8.15;100.00;100019.22;5029314;28;19925;-81
2023/09/26 14:06:31;;;;;;;;;;;;;;;8.17;100.00;100018.28;5031212;28;19917;-81
2023/09/26 14:08:56;;;;;;;;;;;;;;;8.21;100.00;100020.81;5030806;28;19921;-84
2023/09/26 14:11:22;;;;;;;;;;;;;;;8.21;100.00;100015.53;5030180;28;19921;-81
2023/09/26 14:13:48;;;;;;;;;;;;;;;8.28;100.00;100011.81;5029440;28;20869;-81
2023/09/26 14:16:13;;;;;;;;;;;;;;;8.31;100.00;100014.34;5029799;28;19964;-81
2023/09/26 14:18:38;;;;;;;;;;;;;;;8.33;100.00;100007.28;5029208;28;20307;-82
2023/09/26 14:21:07;;;;;;;;;;;;;;;8.33;100.00;100009.91;5029059;28;19921;-81
2023/09/26 14:23:33;;;;;;;;;;;;;;;8.36;100.00;100015.97;5029319;28;19937;-80
2023/09/26 14:25:58;;;;;;;;;;;;;;;8.36;100.00;100012.47;5030290;28;20302;-81
2023/09/26 14:28:24;;;;;;;;;;;;;;;8.39;100.00;100001.78;5028280;28;19921;-81
2023/09/26 14:30:49;;;;;;;;;;;;;;;8.41;100.00;100002.63;5047224;28;20360;-82
2023/09/26 14:33:15;;;;;;;;;;;;;;;8.43;100.00;100000.81;5046080;28;20399;-81
2023/09/26 14:35:42;;;;;;;;;;;;;;;8.43;100.00;100003.47;5026848;28;19933;-81
2023/09/26 14:38:07;;;;;;;;;;;;;;;8.44;100.00;100001.66;5028766;28;19931;-81
2023/09/26 14:40:32;;;;;;;;;;;;;;;8.46;100.00;100003.38;5031836;28;19921;-82
2023/09/26 14:42:58;;;;;;;;;;;;;;;8.48;100.00;100004.19;5031413;28;19944;-81
2023/09/26 14:45:23;;;;;;;;;;;;;;;8.53;100.00;100002.25;5030611;28;19967;-81
2023/09/26 14:47:48;;;;;;;;;;;;;;;8.52;100.00;100000.53;5046422;28;19925;-81
2023/09/26 14:50:13;;;;;;;;;;;;;;;8.54;100.00;100005.78;5027869;28;19917;-81
2023/09/26 14:52:39;;;;;;;;;;;;;;;8.57;100.00;99999.50;5029771;28;19925;-81
2023/09/26 14:55:04;;;;;;;;;;;;;;;8.61;100.00;100002.00;5029044;28;19921;-80
2023/09/26 14:57:29;;;;;;;;;;;;;;;8.59;100.00;100003.00;5046099;28;19925;-81
2023/09/26 14:59:55;;;;;;;;;;;;;;;8.61;100.00;100002.00;5044830;28;19968;-80
2023/09/26 15:02:20;;;;;;;;;;;;;;;8.63;100.00;100001.97;5029234;28;19960;-82
2023/09/26 15:04:45;;;;;;;;;;;;;;;8.66;100.00;100001.88;5029689;28;19921;-90
2023/09/26 15:07:11;;;;;;;;;;;;;;;8.69;100.00;100001.78;5030506;28;19921;-80
2023/09/26 15:09:36;;;;;;;;;;;;;;;8.68;100.00;100000.03;5029021;28;19925;-81
2023/09/26 15:12:01;;;;;;;;;;;;;;;8.71;100.00;100005.22;5027680;28;19921;-81
2023/09/26 15:14:26;;;;;;;;;;;;;;;8.73;100.00;100000.78;5029160;28;19929;-80
2023/09/26 15:16:52;;;;;;;;;;;;;;;8.75;100.00;100006.88;5031321;28;20246;-81
2023/09/26 15:19:17;;;;;;;;;;;;;;;8.61;100.00;100003.81;5033185;28;20280;-81
2023/09/26 15:21:42;;;;;;;;;;;;;;;7.74;100.00;99992.25;5043704;28;20371;-87
2023/09/26 15:24:08;;;;;;;;;;;;;;;7.31;100.00;99990.75;5046829;28;20022;-81
2023/09/26 15:26:33;;;;;;;;;;;;;;;7.21;100.00;99995.41;5030867;28;19968;-81
2023/09/26 15:28:58;;;;;;;;;;;;;;;7.11;100.00;99993.94;5031480;28;19925;-90
2023/09/26 15:31:23;;;;;;;;;;;;;;;7.06;100.00;99994.03;5035078;28;19960;-86
2023/09/26 15:33:49;;;;;;;;;;;;;;;6.97;100.00;99992.47;5031873;28;20575;-81
2023/09/26 15:36:14;;;;;;;;;;;;;;;6.96;100.00;99985.50;5031486;28;20387;-81
2023/09/26 15:38:40;;;;;;;;;;;;;;;6.83;100.00;99984.06;5033515;28;19917;-82
2023/09/26 15:41:19;;;;;;;;;;;;;;;6.76;100.00;99987.75;5032547;28;19929;-82
2023/09/26 15:43:46;;;;;;;;;;;;;;;6.71;100.00;99980.81;5033046;28;19921;-82
2023/09/26 15:46:11;;;;;;;;;;;;;;;6.75;100.00;99986.91;5031464;28;19921;-81
2023/09/26 15:48:36;;;;;;;;;;;;;;;6.65;100.00;99975.72;5034075;28;19935;-82
2023/09/26 15:51:10;;;;;;;;;;;;;;;6.65;100.00;99978.34;5033951;28;19972;-85
2023/09/26 15:53:41;;;;;;;;;;;;;;;6.61;100.00;99973.19;5033089;28;20057;-81
2023/09/26 15:56:07;;;;;;;;;;;;;;;6.61;100.00;99968.78;5032977;28;19928;-81
2023/09/26 15:58:33;;;;;;;;;;;;;;;6.69;100.00;99976.50;5034415;28;19921;-81
2023/09/26 16:00:58;;;;;;;;;;;;;;;6.54;100.00;99973.34;5033044;28;19917;-81
2023/09/26 16:03:23;;;;;;;;;;;;;;;6.55;100.00;99974.19;5034266;28;19975;-81
2023/09/26 16:05:48;;;;;;;;;;;;;;;6.52;100.00;99979.53;5034265;28;19921;-82
2023/09/26 16:08:17;;;;;;;;;;;;;;;6.49;100.00;99969.06;5033359;28;19928;-91
2023/09/26 16:10:43;;;;;;;;;;;;;;;6.52;100.00;99969.84;5032874;28;19947;-80
2023/09/26 16:13:09;;;;;;;;;;;;;;;6.51;100.00;99967.25;5033854;28;19917;-81
2023/09/26 16:15:34;;;;;;;;;;;;;;;6.50;100.00;99970.81;5034229;28;19924;-84
2023/09/26 16:18:01;;;;;;;;;;;;;;;6.39;100.00;99967.56;5034032;28;20338;-82
2023/09/26 16:20:27;;;;;;;;;;;;;;;6.48;100.00;99968.22;5033868;28;19996;-81
2023/09/26 16:22:52;;;;;;;;;;;;;;;6.42;100.00;99967.50;5033068;28;19920;-81
2023/09/26 16:25:23;;;;;;;;;;;;;;;6.47;100.00;99966.47;5032358;28;19921;-82
2023/09/26 16:27:48;;;;;;;;;;;;;;;6.40;100.00;99971.91;5048244;28;19921;-82
2023/09/26 16:30:13;;;;;;;;;;;;;;;6.41;100.00;99973.63;5032764;28;19928;-83
2023/09/26 16:32:39;;;;;;;;;;;;;;;6.33;100.00;99969.44;5030821;28;19921;-81
2023/09/26 16:35:04;;;;;;;;;;;;;;;6.35;100.00;99972.00;5032392;28;19925;-82
2023/09/26 16:37:29;;;;;;;;;;;;;;;6.34;100.00;99972.91;5032036;28;20004;-82
2023/09/26 16:39:55;;;;;;;;;;;;;;;6.39;100.00;99980.72;5032366;28;19947;-86
2023/09/26 16:42:20;;;;;;;;;;;;;;;6.34;100.00;99976.41;5031897;28;19925;-81
2023/09/26 16:44:47;;;;;;;;;;;;;;;6.34;100.00;99986.94;5033540;28;20300;-81
2023/09/26 16:47:12;;;;;;;;;;;;;;;6.32;100.00;99986.09;5033207;28;19917;-82
2023/09/26 16:49:37;;;;;;;;;;;;;;;6.33;100.00;99990.50;5033263;28;20339;-81
2023/09/26 16:52:03;;;;;;;;;;;;;;;6.32;100.00;99991.38;5032108;28;19917;-82
2023/09/26 16:54:28;;;;;;;;;;;;;;;6.34;100.00;99994.84;5031813;28;19917;-83
2023/09/26 16:56:53;;;;;;;;;;;;;;;6.36;100.00;99987.75;5032052;28;19917;-83
2023/09/26 16:59:18;;;;;;;;;;;;;;;6.28;100.00;99992.31;5033156;28;19917;-82
2023/09/26 17:01:44;;;;;;;;;;;;;;;6.29;100.00;99994.06;5033065;28;20283;-82
2023/09/26 17:04:11;;;;;;;;;;;;;;;6.34;100.00;99991.34;5033092;28;19952;-83
2023/09/26 17:06:36;;;;;;;;;;;;;;;6.30;100.00;99995.81;5031360;28;19921;-86
2023/09/26 17:09:02;;;;;;;;;;;;;;;6.31;100.00;99999.31;5046087;28;20361;-82
2023/09/26 17:11:27;;;;;;;;;;;;;;;6.26;100.00;100003.81;5032913;28;20043;-83
2023/09/26 17:13:52;;;;;;;;;;;;;;;6.26;100.00;100009.06;5031167;28;19928;-82
2023/09/26 17:16:18;;;;;;;;;;;;;;;6.20;100.00;100010.06;5032880;28;20027;-83
2023/09/26 17:18:43;;;;;;;;;;;;;;;6.21;100.00;100010.91;5032720;28;19979;-83
2023/09/26 17:21:09;;;;;;;;;;;;;;;6.18;100.00;100017.13;5031668;28;19925;-81
2023/09/26 17:23:35;;;;;;;;;;;;;;;6.22;100.00;100016.13;5030654;28;19921;-83
2023/09/26 17:26:00;;;;;;;;;;;;;;;6.15;100.00;100017.19;5032094;28;19924;-82
2023/09/26 17:28:26;;;;;;;;;;;;;;;6.18;100.00;100017.13;5032559;28;19928;-83
2023/09/26 17:30:53;;;;;;;;;;;;;;;6.18;100.00;100012.72;5046247;28;19928;-82
2023/09/26 17:33:18;;;;;;;;;;;;;;;6.17;100.00;100021.53;5031534;28;19917;-83
2023/09/26 17:35:44;;;;;;;;;;;;;;;6.13;100.00;100021.63;5032565;28;20015;-82
2023/09/26 17:38:09;;;;;;;;;;;;;;;6.16;100.00;100029.47;5030367;28;19921;-82
2023/09/26 17:40:34;;;;;;;;;;;;;;;6.09;100.00;100027.84;5031405;28;19921;-82
2023/09/26 17:43:00;;;;;;;;;;;;;;;6.09;100.00;100033.09;5031549;28;19960;-82
2023/09/26 17:45:26;;;;;;;;;;;;;;;6.05;100.00;100031.41;5032312;28;20387;-82
2023/09/26 17:47:51;;;;;;;;;;;;;;;6.05;100.00;100031.41;5031005;28;19932;-82
2023/09/26 17:50:16;;;;;;;;;;;;;;;6.09;100.00;100027.84;5029410;28;19929;-82
2023/09/26 17:52:42;;;;;;;;;;;;;;;6.05;100.00;100027.03;5031799;28;20430;-82
2023/09/26 17:55:07;;;;;;;;;;;;;;;6.09;100.00;100036.59;5030218;28;19968;-82
2023/09/26 17:57:33;;;;;;;;;;;;;;;6.00;100.00;100040.28;5029925;28;19925;-83
2023/09/26 17:59:58;;;;;;;;;;;;;;;6.04;100.00;100037.59;5030893;28;19921;-83
2023/09/26 18:02:24;;;;;;;;;;;;;;;6.07;100.00;100041.03;5031962;28;19918;-85
2023/09/26 18:04:51;;;;;;;;;;;;;;;6.04;100.00;100046.34;5032150;28;20403;-83
2023/09/26 18:07:16;;;;;;;;;;;;;;;6.04;100.00;100040.22;5031925;28;19917;-83
2023/09/26 18:09:42;;;;;;;;;;;;;;;6.03;100.00;100044.63;5030805;28;19936;-83
2023/09/26 18:12:07;;;;;;;;;;;;;;;6.04;100.00;100045.47;5030608;28;19928;-83
2023/09/26 18:14:32;;;;;;;;;;;;;;;9.63;100.00;100048.91;5032492;28;19925;-83
2023/09/26 18:16:57;;;;;;;;;;;;;;;6.85;100.00;100056.88;5030733;28;20419;-84
2023/09/26 18:19:23;;;;;;;;;;;;;;;6.35;100.00;100051.84;5031908;28;19947;-83
2023/09/26 18:21:48;;;;;;;;;;;;;;;6.24;100.00;100048.56;5047222;28;19921;-83
2023/09/26 18:24:14;;;;;;;;;;;;;;;6.14;100.00;100047.91;5030739;28;19936;-83
2023/09/26 18:26:39;;;;;;;;;;;;;;;6.18;100.00;100049.56;5031826;28;20268;-82
2023/09/26 18:29:04;;;;;;;;;;;;;;;6.14;100.00;100057.53;5031874;28;19921;-83
2023/09/26 18:31:30;;;;;;;;;;;;;;;6.07;100.00;100061.22;5031739;28;19924;-83
2023/09/26 18:33:55;;;;;;;;;;;;;;;5.99;100.00;100070.09;5030485;28;19921;-83
2023/09/26 18:36:20;;;;;;;;;;;;;;;6.03;100.00;100063.03;5031721;28;19967;-83
2023/09/26 18:38:45;;;;;;;;;;;;;;;6.03;100.00;100063.03;5045583;28;19921;-83
2023/09/26 18:41:11;;;;;;;;;;;;;;;5.92;100.00;100068.47;5031855;28;20144;-83
2023/09/26 18:43:36;;;;;;;;;;;;;;;5.94;100.00;100068.44;5031701;28;19917;-87
2023/09/26 18:46:01;;;;;;;;;;;;;;;5.94;100.00;100066.66;5030785;28;19917;-83
2023/09/26 18:48:27;;;;;;;;;;;;;;;5.99;100.00;100069.25;5031634;28;20024;-83
2023/09/26 18:50:52;;;;;;;;;;;;;;;5.92;100.00;100071.09;5032748;28;20415;-82
2023/09/26 18:53:17;;;;;;;;;;;;;;;5.96;100.00;100067.53;5034256;28;20421;-83
2023/09/26 18:55:43;;;;;;;;;;;;;;;5.85;100.00;100069.47;5035378;28;19921;-84
2023/09/26 18:58:08;;;;;;;;;;;;;;;5.99;100.00;100064.84;5035575;28;20838;-83
2023/09/26 19:00:34;;;;;;;;;;;;;;;5.93;100.00;100072.81;5034472;28;19921;-83
2023/09/26 19:03:19;;;;;;;;;;;;;;;5.93;100.00;100066.69;5035601;28;19924;-91
2023/09/26 19:05:49;;;;;;;;;;;;;;;5.88;100.00;100073.81;5033904;28;21340;-85
2023/09/26 19:08:14;;;;;;;;;;;;;;;5.91;100.00;100074.63;5034045;28;19917;-83
2023/09/26 19:10:40;;;;;;;;;;;;;;;5.80;100.00;100077.44;5035251;28;19932;-83
2023/09/26 19:13:05;;;;;;;;;;;;;;;5.85;100.00;100077.34;5034407;28;19922;-88
2023/09/26 19:15:30;;;;;;;;;;;;;;;5.76;100.00;100074.91;5035101;28;20008;-84
2023/09/26 19:17:56;;;;;;;;;;;;;;;5.93;100.00;100080.72;5034415;28;19924;-85
2023/09/26 19:20:22;;;;;;;;;;;;;;;5.84;100.00;100086.16;5035130;28;20019;-83
2023/09/26 19:22:47;;;;;;;;;;;;;;;5.83;100.00;100092.31;5035184;28;20432;-83
2023/09/26 19:25:12;;;;;;;;;;;;;;;5.85;100.00;100092.28;5033701;28;19969;-83
2023/09/26 19:27:38;;;;;;;;;;;;;;;5.85;100.00;100093.13;5035134;28;19921;-82
2023/09/26 19:30:03;;;;;;;;;;;;;;;5.86;100.00;100089.63;5034820;28;19917;-84
2023/09/26 19:32:28;;;;;;;;;;;;;;;5.86;100.00;100094.88;5034825;28;19929;-83
2023/09/26 19:34:54;;;;;;;;;;;;;;;5.93;100.00;100093.00;5034741;28;20295;-82
2023/09/26 19:37:19;;;;;;;;;;;;;;;5.85;100.00;100093.13;5034681;28;19917;-83
2023/09/26 19:39:45;;;;;;;;;;;;;;;5.82;100.00;100099.34;5033657;28;19963;-84
2023/09/26 19:42:10;;;;;;;;;;;;;;;5.75;100.00;100097.69;5034780;28;20384;-82
2023/09/26 19:44:35;;;;;;;;;;;;;;;5.87;100.00;100101.00;5034347;28;19917;-82
2023/09/26 19:47:01;;;;;;;;;;;;;;;5.78;100.00;100099.44;5034631;28;19966;-83
2023/09/26 19:49:26;;;;;;;;;;;;;;;5.79;100.00;100103.75;5034261;28;20284;-83
2023/09/26 19:51:51;;;;;;;;;;;;;;;5.81;100.00;100100.22;5034401;28;20018;-83
2023/09/26 19:54:16;;;;;;;;;;;;;;;5.84;100.00;100096.69;5033347;28;19921;-83
2023/09/26 19:56:42;;;;;;;;;;;;;;;5.74;100.00;100090.69;5034299;28;19971;-83
2023/09/26 19:59:07;;;;;;;;;;;;;;;5.70;100.00;100082.94;5034514;28;19932;-84
2023/09/26 20:01:34;;;;;;;;;;;;;;;5.80;100.00;100087.09;5034052;28;20364;-84
2023/09/26 20:03:59;;;;;;;;;;;;;;;5.75;100.00;100086.34;5032693;28;19917;-82
2023/09/26 20:06:24;;;;;;;;;;;;;;;5.78;100.00;100092.38;5034120;28;19927;-82
2023/09/26 20:08:49;;;;;;;;;;;;;;;5.78;100.00;100096.78;5033138;28;19917;-82
2023/09/26 20:11:16;;;;;;;;;;;;;;;5.74;100.00;100095.09;5032861;28;19917;-83
2023/09/26 20:13:42;;;;;;;;;;;;;;;5.75;100.00;100096.84;5049244;28;20007;-82
2023/09/26 20:16:07;;;;;;;;;;;;;;;5.80;100.00;100100.25;5034079;28;20320;-83
2023/09/26 20:18:33;;;;;;;;;;;;;;;5.75;100.00;100096.84;5033957;28;19925;-83
2023/09/26 20:20:58;;;;;;;;;;;;;;;5.75;100.00;100095.06;5049121;28;19953;-86
2023/09/26 20:23:23;;;;;;;;;;;;;;;5.72;100.00;100097.75;5032686;28;19928;-83
2023/09/26 20:25:49;;;;;;;;;;;;;;;5.75;100.00;100096.84;5032497;28;20780;-83